HKNW

Nairobi Wilson Airport

Nairobi, Kenya
METAR HKNW 140000Z 03007KT 9999 -RA FEW019 BKN070 17/16 Q1023
Observed Flight Rules
Dec-14 @ 00:00 UTC (49 minutes ago) Visual Flight Rules
Wind Visibility Clouds Conditions
30° at 7 knots 10,000+ meters
  • Few at 1,900' AGL
  • Broken at 7,000' AGL
  • Light Rain
Temperatures Readings
Current 17°C / 63°F
Dewpoint 16°C / 61°F
Humidity 94%
Altimeter 30.21" Hg
Pressure 1023 hPa
Elevation 1679
METAR HKNW 140000Z 03007KT 9999 -RA FEW019 BKN070 17/16 Q1023
Observed Flight Rules
Dec-14 @ 00:00 UTC
(49 minutes ago)
VFR
Wind Visibility
30° at 7 knots 10,000+ meters
Clouds
  • Few at 1,900' AGL
  • Broken at 7,000' AGL
Conditions
  • Light Rain
Temperature Dewpoint
17°C / 63°F 16°C / 61°F
Humidity Altimeter Pressure
94% 30.21" Hg 1023 hPa